Royal Clipper — 9HA2796 — position and weather

sailwx.info

Track history (hours):
 
Tides and Currents Weather Stations Pressure Air Temp Water Temp Dewpoint Dewpoint Depression Visibility Wind Speed Wind Dir Waves Ship Positions

Royal Clipper

Last reported at 2019-Aug-21 01:12 UTC. Time now 2019-Aug-22 09:50 UTC.
Position N 37°52' E 015°54'.

Length 137 m; draft 6.2 m.

Type: Ship. MMSI: 215813000.

Date/timePositionNaut miles runAvg speedWind from/ knotsBaromVisibWave heightAir tempDewpointWater temp
2019-Aug-21 01:12N 37°52' E 015°54'5 8.9
2019-Aug-21 00:38N 37°51' E 015°47'1 8.8
2019-Aug-21 00:29N 37°51' E 015°46'4 8.8
2019-Aug-21 00:00N 37°51' E 015°40'5 8.9
2019-Aug-20 23:25N 37°51' E 015°34'4 9.0
2019-Aug-20 23:00N 37°50' E 015°29'6 0.5
2019-Aug-20 11:03N 37°52' E 015°21'1 8.0
2019-Aug-20 10:59N 37°52' E 015°22'4 8.1
2019-Aug-20 10:30N 37°55' E 015°24'5 7.7
2019-Aug-20 09:49N 37°60' E 015°28'3 8.1
2019-Aug-20 09:30N 38°02' E 015°30'3 5.6
2019-Aug-20 09:01N 38°04' E 015°31'4 7.6
2019-Aug-20 08:30N 38°08' E 015°33'4 9.0
2019-Aug-20 08:01N 38°12' E 015°35'4 8.7
2019-Aug-20 07:30N 38°15' E 015°39'4 8.7
2019-Aug-20 07:01N 38°20' E 015°39'510.1
2019-Aug-20 06:30N 38°24' E 015°36'510.0
2019-Aug-20 06:01N 38°29' E 015°33'510.0
2019-Aug-20 05:30N 38°34' E 015°31'510.2
2019-Aug-20 05:00N 38°38' E 015°28'710.4
2019-Aug-20 04:22N 38°44' E 015°24'10910.5
2019-Aug-19 17:59N 40°23' E 014°23'611.1
2019-Aug-19 17:27N 40°28' E 014°21'610.7
2019-Aug-19 16:52N 40°34' E 014°17'410.2
2019-Aug-19 16:30N 40°37' E 014°18'4 7.9
2019-Aug-19 16:00N 40°39' E 014°23'0 0.7
2019-Aug-19 15:30N 40°38' E 014°23'0 0.0
2019-Aug-19 15:00N 40°38' E 014°23'0 0.0
2019-Aug-19 14:30N 40°38' E 014°23'0 0.0
2019-Aug-19 14:00N 40°38' E 014°23'0 0.0
2019-Aug-19 13:27N 40°38' E 014°23'0 0.0
2019-Aug-19 13:00N 40°38' E 014°23'0 0.0
2019-Aug-19 12:30N 40°38' E 014°23'0 0.0
2019-Aug-19 12:00N 40°38' E 014°23'0 0.0
2019-Aug-19 11:30N 40°38' E 014°23'0 0.0
2019-Aug-19 11:00N 40°38' E 014°23'0 0.1
2019-Aug-19 10:30N 40°38' E 014°23'0 0.0
2019-Aug-19 10:00N 40°38' E 014°23'0 0.0
2019-Aug-19 09:30N 40°38' E 014°23'0 0.0
2019-Aug-19 09:00N 40°38' E 014°23'0 0.0
2019-Aug-19 08:30N 40°38' E 014°23'0 0.0
2019-Aug-19 08:00N 40°38' E 014°23'0 0.0
2019-Aug-19 07:31N 40°38' E 014°23'0 0.0
2019-Aug-19 07:00N 40°38' E 014°23'0 0.0
2019-Aug-19 06:31N 40°38' E 014°23'0 0.0
2019-Aug-19 06:00N 40°38' E 014°23'0 0.7
2019-Aug-19 05:30N 40°39' E 014°23'4 8.5
2019-Aug-19 05:00N 40°39' E 014°17'4 8.0
2019-Aug-19 04:30N 40°39' E 014°12'4 8.2
2019-Aug-19 04:01N 40°39' E 014°06'4 8.6
2019-Aug-19 03:30N 40°39' E 014°01'4 8.5
2019-Aug-19 03:00N 40°38' E 013°55'4 8.5
2019-Aug-19 02:30N 40°39' E 013°50'5 8.8
2019-Aug-19 01:58N 40°40' E 013°44'5 9.1
2019-Aug-19 01:25N 40°41' E 013°37'4 9.0
2019-Aug-19 01:00N 40°42' E 013°32'4 9.0
2019-Aug-19 00:30N 40°43' E 013°27'4 8.0
2019-Aug-19 00:00N 40°44' E 013°21'1 2.8
2019-Aug-18 23:30N 40°44' E 013°20'1 2.7
2019-Aug-18 23:00N 40°45' E 013°18'1 2.8
2019-Aug-18 22:30N 40°45' E 013°16'2 3.2
2019-Aug-18 22:00N 40°46' E 013°14'2 3.9
2019-Aug-18 21:30N 40°47' E 013°12'12 1.1
2019-Aug-18 10:41N 40°54' E 012°59'0 0.0
2019-Aug-18 09:26N 40°54' E 012°59'0 0.0
2019-Aug-18 08:44N 40°54' E 012°59'0 0.0
2019-Aug-18 08:29N 40°54' E 012°59'0 0.0
2019-Aug-18 07:56N 40°54' E 012°59'5 3.5
2019-Aug-18 06:34N 40°57' E 012°54'3 8.7
2019-Aug-18 06:16N 40°59' E 012°52'4 8.6
2019-Aug-18 05:45N 41°02' E 012°48'103 3.6
2019-Aug-17 00:52N 42°18' E 011°13'1 2.6
2019-Aug-17 00:30N 42°18' E 011°12'1 2.6
2019-Aug-16 23:57N 42°19' E 011°10'1 2.6
2019-Aug-16 23:30N 42°20' E 011°09'1 2.2
2019-Aug-16 22:52N 42°21' E 011°08'1 3.0
2019-Aug-16 22:23N 42°22' E 011°06'3 2.7
2019-Aug-16 21:14N 42°24' E 011°03'1 4.2
2019-Aug-16 20:58N 42°25' E 011°03'98 3.3
2019-Aug-15 15:42N 41°10' E 009°38'5 3.1
2019-Aug-15 14:11N 41°09' E 009°32'0 0.0
2019-Aug-15 12:47N 41°09' E 009°32'0 0.0
2019-Aug-15 09:47N 41°09' E 009°32'0 0.0
2019-Aug-15 09:29N 41°09' E 009°32'0 0.0
2019-Aug-15 08:53N 41°09' E 009°32'0 0.0
2019-Aug-15 08:29N 41°09' E 009°32'0 0.0
2019-Aug-15 07:56N 41°09' E 009°32'0 0.0
2019-Aug-15 07:17N 41°09' E 009°32'0 0.0
2019-Aug-15 06:56N 41°09' E 009°32'60 1.6
2019-Aug-13 18:19N 42°08' E 009°46'610.7
2019-Aug-13 17:44N 42°14' E 009°49'510.6
2019-Aug-13 17:13N 42°19' E 009°51'1310.6
2019-Aug-13 15:59N 42°32' E 009°56'510.6
2019-Aug-13 15:30N 42°37' E 009°58'611.2
2019-Aug-13 14:59N 42°42' E 010°01'611.6
2019-Aug-13 14:30N 42°48' E 010°03'511.0
2019-Aug-13 14:00N 42°50' E 010°10'612.4
2019-Aug-13 13:30N 42°51' E 010°18'2 3.5
2019-Aug-13 12:55N 42°49' E 010°20'0 0.0
2019-Aug-13 12:16N 42°49' E 010°20'0 0.0
2019-Aug-13 11:49N 42°49' E 010°20'0 0.0
2019-Aug-13 11:19N 42°49' E 010°20'0 0.0
2019-Aug-13 10:55N 42°49' E 010°20'0 0.0
2019-Aug-13 05:31N 42°49' E 010°20'15 6.2
2019-Aug-13 03:09N 43°03' E 010°16'1 8.6
2019-Aug-13 02:59N 43°05' E 010°16'9 8.8
2019-Aug-13 02:00N 43°13' E 010°13'5 9.7
2019-Aug-13 01:31N 43°18' E 010°12'5 9.6
2019-Aug-13 01:00N 43°22' E 010°10'5 9.6
2019-Aug-13 00:30N 43°27' E 010°07'5 9.9
2019-Aug-13 00:00N 43°31' E 010°05'5 9.7
2019-Aug-12 23:31N 43°36' E 010°04'5 9.6
2019-Aug-12 23:00N 43°41' E 010°02'5 9.5
2019-Aug-12 22:31N 43°46' E 010°01'5 9.4
2019-Aug-12 22:01N 43°50' E 009°60'5 9.3
2019-Aug-12 21:31N 43°55' E 010°00'5 9.6
2019-Aug-12 21:00N 43°60' E 009°59'4 8.2
2019-Aug-12 20:31N 44°03' E 009°56'2 3.9
2019-Aug-12 19:58N 44°04' E 009°54'0 0.1
2019-Aug-12 19:28N 44°04' E 009°54'0 0.0
2019-Aug-12 18:58N 44°04' E 009°54'0 0.0
2019-Aug-12 18:28N 44°04' E 009°54'0 0.0
2019-Aug-12 17:58N 44°04' E 009°54'0 0.0
2019-Aug-12 17:28N 44°04' E 009°54'0 0.1
2019-Aug-12 16:58N 44°04' E 009°54'0 0.0
2019-Aug-12 16:28N 44°04' E 009°54'0 0.0
2019-Aug-12 15:58N 44°04' E 009°54'0 0.0
2019-Aug-12 15:28N 44°04' E 009°54'0 0.1
2019-Aug-12 14:55N 44°04' E 009°54'0 0.0
2019-Aug-12 14:28N 44°04' E 009°54'0 0.0
2019-Aug-12 13:58N 44°04' E 009°54'0 0.0
2019-Aug-12 13:28N 44°04' E 009°54'0 0.0
2019-Aug-12 12:58N 44°04' E 009°54'0 0.0
2019-Aug-12 12:28N 44°04' E 009°54'0 0.0
2019-Aug-12 11:58N 44°04' E 009°54'0 0.0
2019-Aug-12 11:28N 44°04' E 009°54'0 0.0
2019-Aug-12 10:58N 44°04' E 009°54'0 0.0
2019-Aug-12 10:25N 44°04' E 009°54'0 0.0
2019-Aug-12 09:58N 44°04' E 009°54'0 0.0
2019-Aug-12 09:25N 44°04' E 009°54'0 0.1
2019-Aug-12 08:55N 44°04' E 009°54'0 0.0
2019-Aug-12 08:28N 44°04' E 009°54'0 0.0
2019-Aug-12 07:58N 44°04' E 009°54'0 0.0
2019-Aug-12 07:28N 44°04' E 009°54'0 0.0
2019-Aug-12 06:58N 44°04' E 009°54'0 0.0
2019-Aug-12 06:28N 44°04' E 009°54'0 0.0
2019-Aug-12 06:00N 44°04' E 009°54'3 5.9
2019-Aug-12 05:30N 44°02' E 009°57'3 5.7
2019-Aug-12 05:00N 43°60' E 009°58'4 7.7
2019-Aug-12 04:30N 43°57' E 009°53'3 7.0
2019-Aug-12 04:00N 43°58' E 009°49'4 7.8
2019-Aug-12 03:30N 43°59' E 009°44'4 7.7
2019-Aug-12 03:00N 44°01' E 009°39'4 7.9
2019-Aug-12 02:30N 44°03' E 009°34'4 8.3
2019-Aug-12 02:00N 44°04' E 009°29'4 8.0
2019-Aug-12 01:30N 44°06' E 009°23'0 0.5
2019-Aug-12 01:00N 44°06' E 009°23'0 0.4
2019-Aug-12 00:30N 44°06' E 009°23'0 0.3
2019-Aug-12 00:00N 44°06' E 009°23'0 0.5
2019-Aug-11 23:30N 44°06' E 009°24'0 0.3
2019-Aug-11 23:00N 44°05' E 009°24'0 0.3
2019-Aug-11 22:30N 44°05' E 009°24'0 0.2
2019-Aug-11 22:00N 44°05' E 009°24'0 0.2
2019-Aug-11 21:30N 44°05' E 009°24'0 0.1
2019-Aug-11 21:00N 44°05' E 009°24'0 0.3
2019-Aug-11 20:30N 44°05' E 009°24'1 2.6
2019-Aug-11 20:00N 44°07' E 009°23'3 5.8
2019-Aug-11 19:30N 44°09' E 009°22'3 6.3
2019-Aug-11 19:00N 44°12' E 009°21'2 3.7
2019-Aug-11 18:30N 44°14' E 009°20'2 3.6
2019-Aug-11 18:00N 44°16' E 009°20'2 3.0
2019-Aug-11 17:30N 44°17' E 009°18'3 3.1
2019-Aug-11 16:40N 44°19' E 009°15'1 3.0
2019-Aug-11 16:28N 44°19' E 009°15'2 0.3
2019-Aug-11 09:13N 44°18' E 009°17'1 5.9
2019-Aug-11 09:01N 44°16' E 009°17'4 8.9
2019-Aug-11 08:30N 44°15' E 009°11'5 9.1
2019-Aug-11 08:01N 44°15' E 009°05'5 9.1
2019-Aug-11 07:31N 44°15' E 008°59'2 3.1
2019-Aug-11 07:00N 44°15' E 008°56'1 1.9
2019-Aug-11 06:30N 44°14' E 008°57'1 1.9
2019-Aug-11 06:01N 44°13' E 008°58'1 2.4
2019-Aug-11 05:31N 44°12' E 008°59'1 2.3
2019-Aug-11 05:01N 44°11' E 008°60'1 2.4
2019-Aug-11 04:31N 44°10' E 009°00'1 2.4
2019-Aug-11 04:01N 44°09' E 009°01'1 2.5
2019-Aug-11 03:31N 44°08' E 009°02'1 2.2
2019-Aug-11 03:00N 44°07' E 009°03'1 1.5
2019-Aug-11 02:31N 44°06' E 009°03'1 1.3
2019-Aug-11 02:00N 44°06' E 009°03'1 2.9
2019-Aug-11 01:30N 44°06' E 009°01'  
Track history (hours):
 
Tides and Currents Weather Stations Pressure Air Temp Water Temp Dewpoint Dewpoint Depression Visibility Wind Speed Wind Dir Waves Ship Positions

Royal Clipper

Last reported at 2019-Aug-21 01:12 UTC. Time now 2019-Aug-22 09:50 UTC.
Position N 37°52' E 015°54'.

Length 137 m; draft 6.2 m.

Type: Ship. MMSI: 215813000.

Date/timePositionNaut miles runAvg speedWind from/ knotsBaromVisibWave heightAir tempDewpointWater temp
2019-Aug-21 01:12N 37°52' E 015°54'5 8.9
2019-Aug-21 00:38N 37°51' E 015°47'1 8.8
2019-Aug-21 00:29N 37°51' E 015°46'4 8.8
2019-Aug-21 00:00N 37°51' E 015°40'5 8.9
2019-Aug-20 23:25N 37°51' E 015°34'4 9.0
2019-Aug-20 23:00N 37°50' E 015°29'6 0.5
2019-Aug-20 11:03N 37°52' E 015°21'1 8.0
2019-Aug-20 10:59N 37°52' E 015°22'4 8.1
2019-Aug-20 10:30N 37°55' E 015°24'5 7.7
2019-Aug-20 09:49N 37°60' E 015°28'3 8.1
2019-Aug-20 09:30N 38°02' E 015°30'3 5.6
2019-Aug-20 09:01N 38°04' E 015°31'4 7.6
2019-Aug-20 08:30N 38°08' E 015°33'4 9.0
2019-Aug-20 08:01N 38°12' E 015°35'4 8.7
2019-Aug-20 07:30N 38°15' E 015°39'4 8.7
2019-Aug-20 07:01N 38°20' E 015°39'510.1
2019-Aug-20 06:30N 38°24' E 015°36'510.0
2019-Aug-20 06:01N 38°29' E 015°33'510.0
2019-Aug-20 05:30N 38°34' E 015°31'510.2
2019-Aug-20 05:00N 38°38' E 015°28'710.4
2019-Aug-20 04:22N 38°44' E 015°24'10910.5
2019-Aug-19 17:59N 40°23' E 014°23'611.1
2019-Aug-19 17:27N 40°28' E 014°21'610.7
2019-Aug-19 16:52N 40°34' E 014°17'410.2
2019-Aug-19 16:30N 40°37' E 014°18'4 7.9
2019-Aug-19 16:00N 40°39' E 014°23'0 0.7
2019-Aug-19 15:30N 40°38' E 014°23'0 0.0
2019-Aug-19 15:00N 40°38' E 014°23'0 0.0
2019-Aug-19 14:30N 40°38' E 014°23'0 0.0
2019-Aug-19 14:00N 40°38' E 014°23'0 0.0
2019-Aug-19 13:27N 40°38' E 014°23'0 0.0
2019-Aug-19 13:00N 40°38' E 014°23'0 0.0
2019-Aug-19 12:30N 40°38' E 014°23'0 0.0
2019-Aug-19 12:00N 40°38' E 014°23'0 0.0
2019-Aug-19 11:30N 40°38' E 014°23'0 0.0
2019-Aug-19 11:00N 40°38' E 014°23'0 0.1
2019-Aug-19 10:30N 40°38' E 014°23'0 0.0
2019-Aug-19 10:00N 40°38' E 014°23'0 0.0
2019-Aug-19 09:30N 40°38' E 014°23'0 0.0
2019-Aug-19 09:00N 40°38' E 014°23'0 0.0
2019-Aug-19 08:30N 40°38' E 014°23'0 0.0
2019-Aug-19 08:00N 40°38' E 014°23'0 0.0
2019-Aug-19 07:31N 40°38' E 014°23'0 0.0
2019-Aug-19 07:00N 40°38' E 014°23'0 0.0
2019-Aug-19 06:31N 40°38' E 014°23'0 0.0
2019-Aug-19 06:00N 40°38' E 014°23'0 0.7
2019-Aug-19 05:30N 40°39' E 014°23'4 8.5
2019-Aug-19 05:00N 40°39' E 014°17'4 8.0
2019-Aug-19 04:30N 40°39' E 014°12'4 8.2
2019-Aug-19 04:01N 40°39' E 014°06'4 8.6
2019-Aug-19 03:30N 40°39' E 014°01'4 8.5
2019-Aug-19 03:00N 40°38' E 013°55'4 8.5
2019-Aug-19 02:30N 40°39' E 013°50'5 8.8
2019-Aug-19 01:58N 40°40' E 013°44'5 9.1
2019-Aug-19 01:25N 40°41' E 013°37'4 9.0
2019-Aug-19 01:00N 40°42' E 013°32'4 9.0
2019-Aug-19 00:30N 40°43' E 013°27'4 8.0
2019-Aug-19 00:00N 40°44' E 013°21'1 2.8
2019-Aug-18 23:30N 40°44' E 013°20'1 2.7
2019-Aug-18 23:00N 40°45' E 013°18'1 2.8
2019-Aug-18 22:30N 40°45' E 013°16'2 3.2
2019-Aug-18 22:00N 40°46' E 013°14'2 3.9
2019-Aug-18 21:30N 40°47' E 013°12'12 1.1
2019-Aug-18 10:41N 40°54' E 012°59'0 0.0
2019-Aug-18 09:26N 40°54' E 012°59'0 0.0
2019-Aug-18 08:44N 40°54' E 012°59'0 0.0
2019-Aug-18 08:29N 40°54' E 012°59'0 0.0
2019-Aug-18 07:56N 40°54' E 012°59'5 3.5
2019-Aug-18 06:34N 40°57' E 012°54'3 8.7
2019-Aug-18 06:16N 40°59' E 012°52'4 8.6
2019-Aug-18 05:45N 41°02' E 012°48'103 3.6
2019-Aug-17 00:52N 42°18' E 011°13'1 2.6
2019-Aug-17 00:30N 42°18' E 011°12'1 2.6
2019-Aug-16 23:57N 42°19' E 011°10'1 2.6
2019-Aug-16 23:30N 42°20' E 011°09'1 2.2
2019-Aug-16 22:52N 42°21' E 011°08'1 3.0
2019-Aug-16 22:23N 42°22' E 011°06'3 2.7
2019-Aug-16 21:14N 42°24' E 011°03'1 4.2
2019-Aug-16 20:58N 42°25' E 011°03'98 3.3
2019-Aug-15 15:42N 41°10' E 009°38'5 3.1
2019-Aug-15 14:11N 41°09' E 009°32'0 0.0
2019-Aug-15 12:47N 41°09' E 009°32'0 0.0
2019-Aug-15 09:47N 41°09' E 009°32'0 0.0
2019-Aug-15 09:29N 41°09' E 009°32'0 0.0
2019-Aug-15 08:53N 41°09' E 009°32'0 0.0
2019-Aug-15 08:29N 41°09' E 009°32'0 0.0
2019-Aug-15 07:56N 41°09' E 009°32'0 0.0
2019-Aug-15 07:17N 41°09' E 009°32'0 0.0
2019-Aug-15 06:56N 41°09' E 009°32'60 1.6
2019-Aug-13 18:19N 42°08' E 009°46'610.7
2019-Aug-13 17:44N 42°14' E 009°49'510.6
2019-Aug-13 17:13N 42°19' E 009°51'1310.6
2019-Aug-13 15:59N 42°32' E 009°56'510.6
2019-Aug-13 15:30N 42°37' E 009°58'611.2
2019-Aug-13 14:59N 42°42' E 010°01'611.6
2019-Aug-13 14:30N 42°48' E 010°03'511.0
2019-Aug-13 14:00N 42°50' E 010°10'612.4
2019-Aug-13 13:30N 42°51' E 010°18'2 3.5
2019-Aug-13 12:55N 42°49' E 010°20'0 0.0
2019-Aug-13 12:16N 42°49' E 010°20'0 0.0
2019-Aug-13 11:49N 42°49' E 010°20'0 0.0
2019-Aug-13 11:19N 42°49' E 010°20'0 0.0
2019-Aug-13 10:55N 42°49' E 010°20'0 0.0
2019-Aug-13 05:31N 42°49' E 010°20'15 6.2
2019-Aug-13 03:09N 43°03' E 010°16'1 8.6
2019-Aug-13 02:59N 43°05' E 010°16'9 8.8
2019-Aug-13 02:00N 43°13' E 010°13'5 9.7
2019-Aug-13 01:31N 43°18' E 010°12'5 9.6
2019-Aug-13 01:00N 43°22' E 010°10'5 9.6
2019-Aug-13 00:30N 43°27' E 010°07'5 9.9
2019-Aug-13 00:00N 43°31' E 010°05'5 9.7
2019-Aug-12 23:31N 43°36' E 010°04'5 9.6
2019-Aug-12 23:00N 43°41' E 010°02'5 9.5
2019-Aug-12 22:31N 43°46' E 010°01'5 9.4
2019-Aug-12 22:01N 43°50' E 009°60'5 9.3
2019-Aug-12 21:31N 43°55' E 010°00'5 9.6
2019-Aug-12 21:00N 43°60' E 009°59'4 8.2
2019-Aug-12 20:31N 44°03' E 009°56'2 3.9
2019-Aug-12 19:58N 44°04' E 009°54'0 0.1
2019-Aug-12 19:28N 44°04' E 009°54'0 0.0
2019-Aug-12 18:58N 44°04' E 009°54'0 0.0
2019-Aug-12 18:28N 44°04' E 009°54'0 0.0
2019-Aug-12 17:58N 44°04' E 009°54'0 0.0
2019-Aug-12 17:28N 44°04' E 009°54'0 0.1
2019-Aug-12 16:58N 44°04' E 009°54'0 0.0
2019-Aug-12 16:28N 44°04' E 009°54'0 0.0
2019-Aug-12 15:58N 44°04' E 009°54'0 0.0
2019-Aug-12 15:28N 44°04' E 009°54'0 0.1
2019-Aug-12 14:55N 44°04' E 009°54'0 0.0
2019-Aug-12 14:28N 44°04' E 009°54'0 0.0
2019-Aug-12 13:58N 44°04' E 009°54'0 0.0
2019-Aug-12 13:28N 44°04' E 009°54'0 0.0
2019-Aug-12 12:58N 44°04' E 009°54'0 0.0
2019-Aug-12 12:28N 44°04' E 009°54'0 0.0
2019-Aug-12 11:58N 44°04' E 009°54'0 0.0
2019-Aug-12 11:28N 44°04' E 009°54'0 0.0
2019-Aug-12 10:58N 44°04' E 009°54'0 0.0
2019-Aug-12 10:25N 44°04' E 009°54'0 0.0
2019-Aug-12 09:58N 44°04' E 009°54'0 0.0
2019-Aug-12 09:25N 44°04' E 009°54'0 0.1
2019-Aug-12 08:55N 44°04' E 009°54'0 0.0
2019-Aug-12 08:28N 44°04' E 009°54'0 0.0
2019-Aug-12 07:58N 44°04' E 009°54'0 0.0
2019-Aug-12 07:28N 44°04' E 009°54'0 0.0
2019-Aug-12 06:58N 44°04' E 009°54'0 0.0
2019-Aug-12 06:28N 44°04' E 009°54'0 0.0
2019-Aug-12 06:00N 44°04' E 009°54'3 5.9
2019-Aug-12 05:30N 44°02' E 009°57'3 5.7
2019-Aug-12 05:00N 43°60' E 009°58'4 7.7
2019-Aug-12 04:30N 43°57' E 009°53'3 7.0
2019-Aug-12 04:00N 43°58' E 009°49'4 7.8
2019-Aug-12 03:30N 43°59' E 009°44'4 7.7
2019-Aug-12 03:00N 44°01' E 009°39'4 7.9
2019-Aug-12 02:30N 44°03' E 009°34'4 8.3
2019-Aug-12 02:00N 44°04' E 009°29'4 8.0
2019-Aug-12 01:30N 44°06' E 009°23'0 0.5
2019-Aug-12 01:00N 44°06' E 009°23'0 0.4
2019-Aug-12 00:30N 44°06' E 009°23'0 0.3
2019-Aug-12 00:00N 44°06' E 009°23'0 0.5
2019-Aug-11 23:30N 44°06' E 009°24'0 0.3
2019-Aug-11 23:00N 44°05' E 009°24'0 0.3
2019-Aug-11 22:30N 44°05' E 009°24'0 0.2
2019-Aug-11 22:00N 44°05' E 009°24'0 0.2
2019-Aug-11 21:30N 44°05' E 009°24'0 0.1
2019-Aug-11 21:00N 44°05' E 009°24'0 0.3
2019-Aug-11 20:30N 44°05' E 009°24'1 2.6
2019-Aug-11 20:00N 44°07' E 009°23'3 5.8
2019-Aug-11 19:30N 44°09' E 009°22'3 6.3
2019-Aug-11 19:00N 44°12' E 009°21'2 3.7
2019-Aug-11 18:30N 44°14' E 009°20'2 3.6
2019-Aug-11 18:00N 44°16' E 009°20'2 3.0
2019-Aug-11 17:30N 44°17' E 009°18'3 3.1
2019-Aug-11 16:40N 44°19' E 009°15'1 3.0
2019-Aug-11 16:28N 44°19' E 009°15'2 0.3
2019-Aug-11 09:13N 44°18' E 009°17'1 5.9
2019-Aug-11 09:01N 44°16' E 009°17'4 8.9
2019-Aug-11 08:30N 44°15' E 009°11'5 9.1
2019-Aug-11 08:01N 44°15' E 009°05'5 9.1
2019-Aug-11 07:31N 44°15' E 008°59'2 3.1
2019-Aug-11 07:00N 44°15' E 008°56'1 1.9
2019-Aug-11 06:30N 44°14' E 008°57'1 1.9
2019-Aug-11 06:01N 44°13' E 008°58'1 2.4
2019-Aug-11 05:31N 44°12' E 008°59'1 2.3
2019-Aug-11 05:01N 44°11' E 008°60'1 2.4
2019-Aug-11 04:31N 44°10' E 009°00'1 2.4
2019-Aug-11 04:01N 44°09' E 009°01'1 2.5
2019-Aug-11 03:31N 44°08' E 009°02'1 2.2
2019-Aug-11 03:00N 44°07' E 009°03'1 1.5
2019-Aug-11 02:31N 44°06' E 009°03'1 1.3
2019-Aug-11 02:00N 44°06' E 009°03'1 2.9
2019-Aug-11 01:30N 44°06' E 009°01'  

Dump ship's entire track history